sensor_id;sensor_type;location;lat;lon;timestamp;P1;durP1;ratioP1;P2;durP2;ratioP2
65799;SDS011;52544;48.116;11.660;2024-01-30T00:00:35;13.38;;;5.57;;
65799;SDS011;52544;48.116;11.660;2024-01-30T00:03:00;11.52;;;6.05;;
65799;SDS011;52544;48.116;11.660;2024-01-30T00:05:26;12.75;;;5.80;;
65799;SDS011;52544;48.116;11.660;2024-01-30T00:07:51;13.25;;;5.40;;
65799;SDS011;52544;48.116;11.660;2024-01-30T00:10:17;8.73;;;5.15;;
65799;SDS011;52544;48.116;11.660;2024-01-30T00:12:42;8.27;;;4.93;;
65799;SDS011;52544;48.116;11.660;2024-01-30T00:15:08;10.45;;;5.72;;
65799;SDS011;52544;48.116;11.660;2024-01-30T00:17:35;13.05;;;5.72;;
65799;SDS011;52544;48.116;11.660;2024-01-30T00:20:02;12.38;;;5.32;;
65799;SDS011;52544;48.116;11.660;2024-01-30T00:22:30;11.80;;;5.65;;
65799;SDS011;52544;48.116;11.660;2024-01-30T00:24:56;13.13;;;5.82;;
65799;SDS011;52544;48.116;11.660;2024-01-30T00:27:21;14.82;;;5.75;;
65799;SDS011;52544;48.116;11.660;2024-01-30T00:29:47;16.40;;;6.15;;
65799;SDS011;52544;48.116;11.660;2024-01-30T00:32:12;22.92;;;5.30;;
65799;SDS011;52544;48.116;11.660;2024-01-30T00:34:38;16.67;;;5.80;;
65799;SDS011;52544;48.116;11.660;2024-01-30T00:37:03;21.25;;;6.13;;
65799;SDS011;52544;48.116;11.660;2024-01-30T00:39:29;18.00;;;5.82;;
65799;SDS011;52544;48.116;11.660;2024-01-30T00:41:54;15.63;;;6.30;;
65799;SDS011;52544;48.116;11.660;2024-01-30T00:44:19;13.77;;;5.25;;
65799;SDS011;52544;48.116;11.660;2024-01-30T00:46:45;15.32;;;5.80;;
65799;SDS011;52544;48.116;11.660;2024-01-30T00:49:11;13.18;;;5.90;;
65799;SDS011;52544;48.116;11.660;2024-01-30T00:51:36;10.30;;;5.20;;
65799;SDS011;52544;48.116;11.660;2024-01-30T00:54:02;12.82;;;5.63;;
65799;SDS011;52544;48.116;11.660;2024-01-30T00:56:28;13.70;;;6.20;;
65799;SDS011;52544;48.116;11.660;2024-01-30T00:58:53;12.05;;;5.50;;
65799;SDS011;52544;48.116;11.660;2024-01-30T01:01:19;13.07;;;5.68;;
65799;SDS011;52544;48.116;11.660;2024-01-30T01:03:44;21.20;;;6.45;;
65799;SDS011;52544;48.116;11.660;2024-01-30T01:06:10;8.48;;;5.30;;
65799;SDS011;52544;48.116;11.660;2024-01-30T01:08:35;13.50;;;6.25;;
65799;SDS011;52544;48.116;11.660;2024-01-30T01:11:01;15.02;;;6.10;;
65799;SDS011;52544;48.116;11.660;2024-01-30T01:13:28;10.00;;;5.65;;
65799;SDS011;52544;48.116;11.660;2024-01-30T01:15:54;13.25;;;5.88;;
65799;SDS011;52544;48.116;11.660;2024-01-30T01:18:19;12.13;;;5.72;;
65799;SDS011;52544;48.116;11.660;2024-01-30T01:20:45;10.55;;;5.40;;
65799;SDS011;52544;48.116;11.660;2024-01-30T01:23:11;14.07;;;6.70;;
65799;SDS011;52544;48.116;11.660;2024-01-30T01:25:36;12.95;;;6.38;;
65799;SDS011;52544;48.116;11.660;2024-01-30T01:28:02;10.68;;;5.47;;
65799;SDS011;52544;48.116;11.660;2024-01-30T01:30:28;12.43;;;5.75;;
65799;SDS011;52544;48.116;11.660;2024-01-30T01:32:54;14.60;;;6.63;;
65799;SDS011;52544;48.116;11.660;2024-01-30T01:35:26;12.23;;;5.78;;
65799;SDS011;52544;48.116;11.660;2024-01-30T01:37:51;13.32;;;6.30;;
65799;SDS011;52544;48.116;11.660;2024-01-30T01:40:20;12.07;;;5.97;;
65799;SDS011;52544;48.116;11.660;2024-01-30T01:42:52;14.15;;;6.53;;
65799;SDS011;52544;48.116;11.660;2024-01-30T01:45:18;13.35;;;5.97;;
65799;SDS011;52544;48.116;11.660;2024-01-30T01:47:45;15.23;;;6.10;;
65799;SDS011;52544;48.116;11.660;2024-01-30T01:50:13;13.98;;;6.53;;
65799;SDS011;52544;48.116;11.660;2024-01-30T01:52:43;13.07;;;6.00;;
65799;SDS011;52544;48.116;11.660;2024-01-30T01:55:10;16.60;;;6.25;;
65799;SDS011;52544;48.116;11.660;2024-01-30T01:57:36;12.18;;;6.18;;
65799;SDS011;52544;48.116;11.660;2024-01-30T02:00:02;13.82;;;6.65;;
65799;SDS011;52544;48.116;11.660;2024-01-30T02:02:30;17.77;;;6.47;;
65799;SDS011;52544;48.116;11.660;2024-01-30T02:04:59;18.67;;;6.82;;
65799;SDS011;52544;48.116;11.660;2024-01-30T02:07:25;11.90;;;5.85;;
65799;SDS011;52544;48.116;11.660;2024-01-30T02:09:52;11.85;;;5.93;;
65799;SDS011;52544;48.116;11.660;2024-01-30T02:12:17;11.38;;;6.20;;
65799;SDS011;52544;48.116;11.660;2024-01-30T02:14:48;13.40;;;6.30;;
65799;SDS011;52544;48.116;11.660;2024-01-30T02:17:15;12.80;;;6.38;;
65799;SDS011;52544;48.116;11.660;2024-01-30T02:19:41;11.93;;;6.03;;
65799;SDS011;52544;48.116;11.660;2024-01-30T02:22:07;14.95;;;6.90;;
65799;SDS011;52544;48.116;11.660;2024-01-30T02:24:32;15.10;;;6.82;;
65799;SDS011;52544;48.116;11.660;2024-01-30T02:26:58;10.30;;;5.53;;
65799;SDS011;52544;48.116;11.660;2024-01-30T02:29:23;14.32;;;5.78;;
65799;SDS011;52544;48.116;11.660;2024-01-30T02:31:49;13.77;;;5.90;;
65799;SDS011;52544;48.116;11.660;2024-01-30T02:34:15;9.98;;;5.50;;
65799;SDS011;52544;48.116;11.660;2024-01-30T02:36:43;10.63;;;5.07;;
65799;SDS011;52544;48.116;11.660;2024-01-30T02:39:09;11.85;;;6.10;;
65799;SDS011;52544;48.116;11.660;2024-01-30T02:41:35;11.02;;;4.95;;
65799;SDS011;52544;48.116;11.660;2024-01-30T02:44:01;10.57;;;5.38;;
65799;SDS011;52544;48.116;11.660;2024-01-30T02:46:27;12.95;;;5.03;;
65799;SDS011;52544;48.116;11.660;2024-01-30T02:48:52;11.88;;;5.45;;
65799;SDS011;52544;48.116;11.660;2024-01-30T02:51:18;10.40;;;5.10;;
65799;SDS011;52544;48.116;11.660;2024-01-30T02:53:43;9.05;;;4.80;;
65799;SDS011;52544;48.116;11.660;2024-01-30T02:56:09;12.18;;;5.28;;
65799;SDS011;52544;48.116;11.660;2024-01-30T02:58:38;12.25;;;5.43;;
65799;SDS011;52544;48.116;11.660;2024-01-30T03:01:04;10.32;;;5.03;;
65799;SDS011;52544;48.116;11.660;2024-01-30T03:03:29;9.68;;;5.10;;
65799;SDS011;52544;48.116;11.660;2024-01-30T03:05:55;7.47;;;4.40;;
65799;SDS011;52544;48.116;11.660;2024-01-30T03:08:20;9.20;;;4.68;;
65799;SDS011;52544;48.116;11.660;2024-01-30T03:10:46;11.63;;;4.80;;
65799;SDS011;52544;48.116;11.660;2024-01-30T03:13:11;9.50;;;4.65;;
65799;SDS011;52544;48.116;11.660;2024-01-30T03:15:37;9.07;;;4.63;;
65799;SDS011;52544;48.116;11.660;2024-01-30T03:18:02;8.95;;;4.57;;
65799;SDS011;52544;48.116;11.660;2024-01-30T03:20:29;9.13;;;4.38;;
65799;SDS011;52544;48.116;11.660;2024-01-30T03:22:55;8.93;;;4.45;;
65799;SDS011;52544;48.116;11.660;2024-01-30T03:25:20;9.13;;;4.10;;
65799;SDS011;52544;48.116;11.660;2024-01-30T03:27:46;6.88;;;3.70;;
65799;SDS011;52544;48.116;11.660;2024-01-30T03:30:11;6.68;;;4.03;;
65799;SDS011;52544;48.116;11.660;2024-01-30T03:32:37;8.80;;;4.00;;
65799;SDS011;52544;48.116;11.660;2024-01-30T03:35:02;7.45;;;4.38;;
65799;SDS011;52544;48.116;11.660;2024-01-30T03:37:28;7.25;;;3.78;;
65799;SDS011;52544;48.116;11.660;2024-01-30T03:39:53;9.20;;;4.22;;
65799;SDS011;52544;48.116;11.660;2024-01-30T03:42:18;6.85;;;3.55;;
65799;SDS011;52544;48.116;11.660;2024-01-30T03:44:44;6.72;;;4.00;;
65799;SDS011;52544;48.116;11.660;2024-01-30T03:47:09;8.52;;;4.32;;
65799;SDS011;52544;48.116;11.660;2024-01-30T03:49:34;7.32;;;3.75;;
65799;SDS011;52544;48.116;11.660;2024-01-30T03:52:00;6.85;;;3.38;;
65799;SDS011;52544;48.116;11.660;2024-01-30T03:54:25;5.28;;;3.45;;
65799;SDS011;52544;48.116;11.660;2024-01-30T03:56:51;5.15;;;3.47;;
65799;SDS011;52544;48.116;11.660;2024-01-30T03:59:16;7.53;;;4.22;;
65799;SDS011;52544;48.116;11.660;2024-01-30T04:01:47;9.63;;;4.07;;
65799;SDS011;52544;48.116;11.660;2024-01-30T04:04:12;8.55;;;3.75;;
65799;SDS011;52544;48.116;11.660;2024-01-30T04:06:38;6.93;;;3.67;;
65799;SDS011;52544;48.116;11.660;2024-01-30T04:09:03;5.97;;;3.22;;
65799;SDS011;52544;48.116;11.660;2024-01-30T04:11:28;6.47;;;3.30;;
65799;SDS011;52544;48.116;11.660;2024-01-30T04:13:54;4.22;;;2.42;;
65799;SDS011;52544;48.116;11.660;2024-01-30T04:16:22;7.60;;;3.53;;
65799;SDS011;52544;48.116;11.660;2024-01-30T04:18:48;6.57;;;3.33;;
65799;SDS011;52544;48.116;11.660;2024-01-30T04:21:14;5.90;;;3.53;;
65799;SDS011;52544;48.116;11.660;2024-01-30T04:23:39;4.65;;;3.10;;
65799;SDS011;52544;48.116;11.660;2024-01-30T04:26:06;7.00;;;3.45;;
65799;SDS011;52544;48.116;11.660;2024-01-30T04:28:31;5.85;;;2.97;;
65799;SDS011;52544;48.116;11.660;2024-01-30T04:30:56;5.22;;;3.08;;
65799;SDS011;52544;48.116;11.660;2024-01-30T04:33:22;8.02;;;2.88;;
65799;SDS011;52544;48.116;11.660;2024-01-30T04:35:47;6.88;;;2.78;;
65799;SDS011;52544;48.116;11.660;2024-01-30T04:38:13;5.50;;;3.13;;
65799;SDS011;52544;48.116;11.660;2024-01-30T04:40:39;5.22;;;3.08;;
65799;SDS011;52544;48.116;11.660;2024-01-30T04:43:05;5.88;;;3.35;;
65799;SDS011;52544;48.116;11.660;2024-01-30T04:45:31;6.43;;;3.00;;
65799;SDS011;52544;48.116;11.660;2024-01-30T04:47:56;5.32;;;3.25;;
65799;SDS011;52544;48.116;11.660;2024-01-30T04:50:21;4.50;;;2.80;;
65799;SDS011;52544;48.116;11.660;2024-01-30T04:52:47;5.57;;;2.80;;
65799;SDS011;52544;48.116;11.660;2024-01-30T04:55:13;6.53;;;3.25;;
65799;SDS011;52544;48.116;11.660;2024-01-30T04:57:38;5.85;;;3.08;;
65799;SDS011;52544;48.116;11.660;2024-01-30T05:00:04;5.30;;;3.03;;
65799;SDS011;52544;48.116;11.660;2024-01-30T05:02:30;5.47;;;2.80;;
65799;SDS011;52544;48.116;11.660;2024-01-30T05:04:56;5.53;;;2.53;;
65799;SDS011;52544;48.116;11.660;2024-01-30T05:07:21;3.88;;;2.63;;
65799;SDS011;52544;48.116;11.660;2024-01-30T05:09:47;8.52;;;3.20;;
65799;SDS011;52544;48.116;11.660;2024-01-30T05:12:12;9.50;;;3.40;;
65799;SDS011;52544;48.116;11.660;2024-01-30T05:14:37;8.88;;;3.20;;
65799;SDS011;52544;48.116;11.660;2024-01-30T05:17:03;7.70;;;3.95;;
65799;SDS011;52544;48.116;11.660;2024-01-30T05:19:28;6.22;;;3.05;;
65799;SDS011;52544;48.116;11.660;2024-01-30T05:21:54;5.53;;;2.90;;
65799;SDS011;52544;48.116;11.660;2024-01-30T05:24:19;7.13;;;3.17;;
65799;SDS011;52544;48.116;11.660;2024-01-30T05:26:45;7.72;;;3.15;;
65799;SDS011;52544;48.116;11.660;2024-01-30T05:29:10;5.78;;;3.20;;
65799;SDS011;52544;48.116;11.660;2024-01-30T05:31:36;5.25;;;2.92;;
65799;SDS011;52544;48.116;11.660;2024-01-30T05:34:01;6.13;;;3.15;;
65799;SDS011;52544;48.116;11.660;2024-01-30T05:36:26;6.10;;;3.20;;
65799;SDS011;52544;48.116;11.660;2024-01-30T05:38:52;6.07;;;2.83;;
65799;SDS011;52544;48.116;11.660;2024-01-30T05:41:18;4.57;;;2.92;;
65799;SDS011;52544;48.116;11.660;2024-01-30T05:43:43;5.75;;;3.13;;
65799;SDS011;52544;48.116;11.660;2024-01-30T05:46:09;4.68;;;2.47;;
65799;SDS011;52544;48.116;11.660;2024-01-30T05:48:34;6.97;;;2.90;;
65799;SDS011;52544;48.116;11.660;2024-01-30T05:51:00;3.90;;;2.45;;
65799;SDS011;52544;48.116;11.660;2024-01-30T05:53:27;9.73;;;3.75;;
65799;SDS011;52544;48.116;11.660;2024-01-30T05:55:52;8.25;;;3.10;;
65799;SDS011;52544;48.116;11.660;2024-01-30T05:58:17;6.35;;;3.03;;
65799;SDS011;52544;48.116;11.660;2024-01-30T06:00:43;7.50;;;3.25;;
65799;SDS011;52544;48.116;11.660;2024-01-30T06:03:08;7.40;;;3.20;;
65799;SDS011;52544;48.116;11.660;2024-01-30T06:05:34;6.00;;;3.25;;
65799;SDS011;52544;48.116;11.660;2024-01-30T06:07:59;6.80;;;3.50;;
65799;SDS011;52544;48.116;11.660;2024-01-30T06:10:25;9.02;;;2.70;;
65799;SDS011;52544;48.116;11.660;2024-01-30T06:12:50;5.28;;;3.00;;
65799;SDS011;52544;48.116;11.660;2024-01-30T06:15:15;6.90;;;3.58;;
65799;SDS011;52544;48.116;11.660;2024-01-30T06:17:41;7.03;;;3.20;;
65799;SDS011;52544;48.116;11.660;2024-01-30T06:20:07;9.27;;;3.30;;
65799;SDS011;52544;48.116;11.660;2024-01-30T06:22:32;6.13;;;3.20;;
65799;SDS011;52544;48.116;11.660;2024-01-30T06:24:58;11.15;;;3.28;;
65799;SDS011;52544;48.116;11.660;2024-01-30T06:27:23;16.08;;;3.00;;
65799;SDS011;52544;48.116;11.660;2024-01-30T06:29:48;4.72;;;3.08;;
65799;SDS011;52544;48.116;11.660;2024-01-30T06:32:14;6.60;;;3.03;;
65799;SDS011;52544;48.116;11.660;2024-01-30T06:34:40;5.72;;;3.13;;
65799;SDS011;52544;48.116;11.660;2024-01-30T06:37:06;6.47;;;2.90;;
65799;SDS011;52544;48.116;11.660;2024-01-30T06:39:31;5.32;;;2.63;;
65799;SDS011;52544;48.116;11.660;2024-01-30T06:41:57;7.00;;;3.25;;
65799;SDS011;52544;48.116;11.660;2024-01-30T06:44:22;5.00;;;2.92;;
65799;SDS011;52544;48.116;11.660;2024-01-30T06:46:47;8.32;;;3.47;;
65799;SDS011;52544;48.116;11.660;2024-01-30T06:49:13;6.32;;;2.97;;
65799;SDS011;52544;48.116;11.660;2024-01-30T06:51:38;5.80;;;2.90;;
65799;SDS011;52544;48.116;11.660;2024-01-30T06:54:04;6.78;;;3.42;;
65799;SDS011;52544;48.116;11.660;2024-01-30T06:56:29;7.50;;;3.42;;
65799;SDS011;52544;48.116;11.660;2024-01-30T06:58:55;7.70;;;3.40;;
65799;SDS011;52544;48.116;11.660;2024-01-30T07:01:20;11.48;;;3.20;;
65799;SDS011;52544;48.116;11.660;2024-01-30T07:03:46;8.90;;;3.92;;
65799;SDS011;52544;48.116;11.660;2024-01-30T07:06:11;10.93;;;3.55;;
65799;SDS011;52544;48.116;11.660;2024-01-30T07:08:37;9.20;;;3.42;;
65799;SDS011;52544;48.116;11.660;2024-01-30T07:11:05;9.60;;;3.97;;
65799;SDS011;52544;48.116;11.660;2024-01-30T07:13:31;7.80;;;3.88;;
65799;SDS011;52544;48.116;11.660;2024-01-30T07:15:57;9.15;;;4.03;;
65799;SDS011;52544;48.116;11.660;2024-01-30T07:18:22;23.42;;;3.90;;
65799;SDS011;52544;48.116;11.660;2024-01-30T07:20:47;10.32;;;3.97;;
65799;SDS011;52544;48.116;11.660;2024-01-30T07:23:14;12.27;;;3.60;;
65799;SDS011;52544;48.116;11.660;2024-01-30T07:25:42;6.47;;;3.45;;
65799;SDS011;52544;48.116;11.660;2024-01-30T07:28:08;7.70;;;3.60;;
65799;SDS011;52544;48.116;11.660;2024-01-30T07:30:35;6.50;;;3.83;;
65799;SDS011;52544;48.116;11.660;2024-01-30T07:33:00;11.18;;;4.28;;
65799;SDS011;52544;48.116;11.660;2024-01-30T07:35:26;12.38;;;3.88;;
65799;SDS011;52544;48.116;11.660;2024-01-30T07:37:51;10.00;;;3.90;;
65799;SDS011;52544;48.116;11.660;2024-01-30T07:40:16;7.38;;;3.33;;
65799;SDS011;52544;48.116;11.660;2024-01-30T07:42:42;8.52;;;3.60;;
65799;SDS011;52544;48.116;11.660;2024-01-30T07:45:08;15.27;;;4.07;;
65799;SDS011;52544;48.116;11.660;2024-01-30T07:47:34;14.23;;;4.20;;
65799;SDS011;52544;48.116;11.660;2024-01-30T07:49:59;13.60;;;4.50;;
65799;SDS011;52544;48.116;11.660;2024-01-30T07:52:25;23.80;;;4.47;;
65799;SDS011;52544;48.116;11.660;2024-01-30T07:54:50;13.35;;;5.43;;
65799;SDS011;52544;48.116;11.660;2024-01-30T07:57:17;18.27;;;7.35;;
65799;SDS011;52544;48.116;11.660;2024-01-30T07:59:45;12.98;;;5.00;;
65799;SDS011;52544;48.116;11.660;2024-01-30T08:02:11;15.43;;;4.63;;
65799;SDS011;52544;48.116;11.660;2024-01-30T08:04:38;10.13;;;3.30;;
65799;SDS011;52544;48.116;11.660;2024-01-30T08:07:04;10.45;;;4.07;;
65799;SDS011;52544;48.116;11.660;2024-01-30T08:09:29;8.45;;;3.78;;
65799;SDS011;52544;48.116;11.660;2024-01-30T08:11:54;15.73;;;4.00;;
65799;SDS011;52544;48.116;11.660;2024-01-30T08:14:20;16.70;;;4.05;;
65799;SDS011;52544;48.116;11.660;2024-01-30T08:16:45;9.57;;;3.80;;
65799;SDS011;52544;48.116;11.660;2024-01-30T08:19:11;11.55;;;3.78;;
65799;SDS011;52544;48.116;11.660;2024-01-30T08:21:36;6.47;;;3.45;;
65799;SDS011;52544;48.116;11.660;2024-01-30T08:24:03;6.85;;;3.42;;
65799;SDS011;52544;48.116;11.660;2024-01-30T08:26:30;7.68;;;3.10;;
65799;SDS011;52544;48.116;11.660;2024-01-30T08:28:55;5.63;;;3.00;;
65799;SDS011;52544;48.116;11.660;2024-01-30T08:31:21;12.05;;;3.90;;
65799;SDS011;52544;48.116;11.660;2024-01-30T08:33:46;10.77;;;3.15;;
65799;SDS011;52544;48.116;11.660;2024-01-30T08:36:12;8.10;;;3.72;;
65799;SDS011;52544;48.116;11.660;2024-01-30T08:38:37;7.22;;;3.28;;
65799;SDS011;52544;48.116;11.660;2024-01-30T08:41:03;12.07;;;3.70;;
65799;SDS011;52544;48.116;11.660;2024-01-30T08:43:28;11.48;;;4.15;;
65799;SDS011;52544;48.116;11.660;2024-01-30T08:45:54;7.35;;;3.97;;
65799;SDS011;52544;48.116;11.660;2024-01-30T08:48:19;6.50;;;2.88;;
65799;SDS011;52544;48.116;11.660;2024-01-30T08:50:44;3.10;;;2.10;;
65799;SDS011;52544;48.116;11.660;2024-01-30T08:53:10;5.50;;;2.55;;
65799;SDS011;52544;48.116;11.660;2024-01-30T08:55:35;9.57;;;2.65;;
65799;SDS011;52544;48.116;11.660;2024-01-30T08:58:01;5.88;;;2.50;;
65799;SDS011;52544;48.116;11.660;2024-01-30T09:00:28;12.98;;;3.33;;
65799;SDS011;52544;48.116;11.660;2024-01-30T09:02:54;12.73;;;3.38;;
65799;SDS011;52544;48.116;11.660;2024-01-30T09:05:19;13.80;;;3.40;;
65799;SDS011;52544;48.116;11.660;2024-01-30T09:07:45;6.35;;;2.80;;
65799;SDS011;52544;48.116;11.660;2024-01-30T09:10:11;7.13;;;2.78;;
65799;SDS011;52544;48.116;11.660;2024-01-30T09:12:36;7.53;;;2.95;;
65799;SDS011;52544;48.116;11.660;2024-01-30T09:15:01;14.50;;;5.00;;
65799;SDS011;52544;48.116;11.660;2024-01-30T09:17:27;4.53;;;2.83;;
65799;SDS011;52544;48.116;11.660;2024-01-30T09:19:52;10.82;;;2.95;;
65799;SDS011;52544;48.116;11.660;2024-01-30T09:22:18;4.38;;;2.40;;
65799;SDS011;52544;48.116;11.660;2024-01-30T09:24:43;2.53;;;1.80;;
65799;SDS011;52544;48.116;11.660;2024-01-30T09:27:09;7.97;;;2.17;;
65799;SDS011;52544;48.116;11.660;2024-01-30T09:29:34;4.10;;;2.13;;
65799;SDS011;52544;48.116;11.660;2024-01-30T09:32:01;3.78;;;2.17;;
65799;SDS011;52544;48.116;11.660;2024-01-30T09:34:27;6.53;;;2.67;;
65799;SDS011;52544;48.116;11.660;2024-01-30T09:36:52;4.82;;;2.20;;
65799;SDS011;52544;48.116;11.660;2024-01-30T09:39:17;4.43;;;2.20;;
65799;SDS011;52544;48.116;11.660;2024-01-30T09:41:48;2.80;;;1.90;;
65799;SDS011;52544;48.116;11.660;2024-01-30T09:44:15;4.10;;;2.40;;
65799;SDS011;52544;48.116;11.660;2024-01-30T09:46:41;4.47;;;2.15;;
65799;SDS011;52544;48.116;11.660;2024-01-30T09:49:08;16.88;;;3.33;;
65799;SDS011;52544;48.116;11.660;2024-01-30T09:51:34;3.58;;;1.98;;
65799;SDS011;52544;48.116;11.660;2024-01-30T09:54:01;9.23;;;2.03;;
65799;SDS011;52544;48.116;11.660;2024-01-30T09:56:28;6.22;;;2.17;;
65799;SDS011;52544;48.116;11.660;2024-01-30T09:58:54;11.10;;;2.22;;
65799;SDS011;52544;48.116;11.660;2024-01-30T10:01:19;5.90;;;2.05;;
65799;SDS011;52544;48.116;11.660;2024-01-30T10:03:45;3.90;;;1.92;;
65799;SDS011;52544;48.116;11.660;2024-01-30T10:06:10;7.90;;;2.00;;
65799;SDS011;52544;48.116;11.660;2024-01-30T10:08:36;4.43;;;1.88;;
65799;SDS011;52544;48.116;11.660;2024-01-30T10:11:02;7.53;;;2.38;;
65799;SDS011;52544;48.116;11.660;2024-01-30T10:13:28;8.70;;;2.03;;
65799;SDS011;52544;48.116;11.660;2024-01-30T10:15:54;4.97;;;2.00;;
65799;SDS011;52544;48.116;11.660;2024-01-30T10:18:20;9.90;;;2.05;;
65799;SDS011;52544;48.116;11.660;2024-01-30T10:20:45;2.85;;;1.95;;
65799;SDS011;52544;48.116;11.660;2024-01-30T10:23:11;9.65;;;2.17;;
65799;SDS011;52544;48.116;11.660;2024-01-30T10:25:37;4.78;;;2.08;;
65799;SDS011;52544;48.116;11.660;2024-01-30T10:28:03;10.88;;;1.95;;
65799;SDS011;52544;48.116;11.660;2024-01-30T10:30:28;11.07;;;3.42;;
65799;SDS011;52544;48.116;11.660;2024-01-30T10:32:54;7.63;;;2.92;;
65799;SDS011;52544;48.116;11.660;2024-01-30T10:35:19;10.77;;;3.08;;
65799;SDS011;52544;48.116;11.660;2024-01-30T10:37:46;4.78;;;2.17;;
65799;SDS011;52544;48.116;11.660;2024-01-30T10:40:13;4.30;;;1.92;;
65799;SDS011;52544;48.116;11.660;2024-01-30T10:42:42;2.90;;;2.00;;
65799;SDS011;52544;48.116;11.660;2024-01-30T10:45:09;6.82;;;2.40;;
65799;SDS011;52544;48.116;11.660;2024-01-30T10:47:43;5.18;;;2.90;;
65799;SDS011;52544;48.116;11.660;2024-01-30T10:50:13;9.65;;;4.47;;
65799;SDS011;52544;48.116;11.660;2024-01-30T10:52:39;6.28;;;2.67;;
65799;SDS011;52544;48.116;11.660;2024-01-30T10:55:07;5.63;;;2.80;;
65799;SDS011;52544;48.116;11.660;2024-01-30T10:57:34;6.05;;;2.72;;
65799;SDS011;52544;48.116;11.660;2024-01-30T11:00:10;10.73;;;3.10;;
65799;SDS011;52544;48.116;11.660;2024-01-30T11:02:38;5.10;;;2.30;;
65799;SDS011;52544;48.116;11.660;2024-01-30T11:05:05;7.93;;;2.28;;
65799;SDS011;52544;48.116;11.660;2024-01-30T11:07:31;6.05;;;2.47;;
65799;SDS011;52544;48.116;11.660;2024-01-30T11:12:26;6.18;;;2.42;;
65799;SDS011;52544;48.116;11.660;2024-01-30T11:15:02;8.77;;;2.63;;
65799;SDS011;52544;48.116;11.660;2024-01-30T11:17:44;2.97;;;2.20;;
65799;SDS011;52544;48.116;11.660;2024-01-30T11:20:10;4.28;;;1.80;;
65799;SDS011;52544;48.116;11.660;2024-01-30T11:22:56;8.68;;;2.63;;
65799;SDS011;52544;48.116;11.660;2024-01-30T11:25:23;4.13;;;2.08;;
65799;SDS011;52544;48.116;11.660;2024-01-30T11:27:49;5.43;;;2.38;;
65799;SDS011;52544;48.116;11.660;2024-01-30T11:30:25;5.93;;;2.70;;
65799;SDS011;52544;48.116;11.660;2024-01-30T11:32:57;5.70;;;2.20;;
65799;SDS011;52544;48.116;11.660;2024-01-30T11:35:33;5.53;;;2.45;;
65799;SDS011;52544;48.116;11.660;2024-01-30T11:38:00;6.90;;;3.05;;
65799;SDS011;52544;48.116;11.660;2024-01-30T11:40:28;8.77;;;2.30;;
65799;SDS011;52544;48.116;11.660;2024-01-30T11:42:54;4.45;;;2.67;;
65799;SDS011;52544;48.116;11.660;2024-01-30T11:45:21;11.88;;;3.17;;
65799;SDS011;52544;48.116;11.660;2024-01-30T11:47:46;8.88;;;2.53;;
65799;SDS011;52544;48.116;11.660;2024-01-30T11:50:12;7.35;;;2.75;;
65799;SDS011;52544;48.116;11.660;2024-01-30T11:52:37;18.10;;;7.60;;
65799;SDS011;52544;48.116;11.660;2024-01-30T11:55:03;6.82;;;3.20;;
65799;SDS011;52544;48.116;11.660;2024-01-30T11:57:29;8.02;;;3.03;;
65799;SDS011;52544;48.116;11.660;2024-01-30T11:59:55;4.22;;;2.50;;
65799;SDS011;52544;48.116;11.660;2024-01-30T12:02:20;10.52;;;3.05;;
65799;SDS011;52544;48.116;11.660;2024-01-30T12:04:45;11.10;;;3.38;;
65799;SDS011;52544;48.116;11.660;2024-01-30T12:07:11;9.35;;;2.92;;
65799;SDS011;52544;48.116;11.660;2024-01-30T12:09:38;4.88;;;2.65;;
65799;SDS011;52544;48.116;11.660;2024-01-30T12:12:03;6.28;;;2.63;;
65799;SDS011;52544;48.116;11.660;2024-01-30T12:14:30;5.57;;;2.38;;
65799;SDS011;52544;48.116;11.660;2024-01-30T12:16:56;15.50;;;2.65;;
65799;SDS011;52544;48.116;11.660;2024-01-30T12:19:22;5.05;;;3.00;;
65799;SDS011;52544;48.116;11.660;2024-01-30T12:21:56;8.68;;;3.00;;
65799;SDS011;52544;48.116;11.660;2024-01-30T12:24:24;7.88;;;2.67;;
65799;SDS011;52544;48.116;11.660;2024-01-30T12:26:50;6.75;;;2.83;;
65799;SDS011;52544;48.116;11.660;2024-01-30T12:29:16;9.20;;;2.72;;
65799;SDS011;52544;48.116;11.660;2024-01-30T12:31:42;14.25;;;3.42;;
65799;SDS011;52544;48.116;11.660;2024-01-30T12:34:09;10.57;;;2.80;;
65799;SDS011;52544;48.116;11.660;2024-01-30T12:36:34;12.13;;;2.58;;
65799;SDS011;52544;48.116;11.660;2024-01-30T12:39:00;4.85;;;2.70;;
65799;SDS011;52544;48.116;11.660;2024-01-30T12:41:26;6.68;;;3.10;;
65799;SDS011;52544;48.116;11.660;2024-01-30T12:43:56;8.63;;;3.15;;
65799;SDS011;52544;48.116;11.660;2024-01-30T12:46:25;6.78;;;3.55;;
65799;SDS011;52544;48.116;11.660;2024-01-30T12:48:52;11.20;;;3.00;;
65799;SDS011;52544;48.116;11.660;2024-01-30T12:51:18;19.30;;;5.03;;
65799;SDS011;52544;48.116;11.660;2024-01-30T12:53:44;7.75;;;3.00;;
65799;SDS011;52544;48.116;11.660;2024-01-30T12:56:09;7.57;;;3.03;;
65799;SDS011;52544;48.116;11.660;2024-01-30T12:58:34;10.05;;;3.42;;
65799;SDS011;52544;48.116;11.660;2024-01-30T13:01:00;10.93;;;3.20;;
65799;SDS011;52544;48.116;11.660;2024-01-30T13:03:25;11.63;;;2.75;;
65799;SDS011;52544;48.116;11.660;2024-01-30T13:05:51;23.15;;;4.65;;
65799;SDS011;52544;48.116;11.660;2024-01-30T13:08:17;11.93;;;3.28;;
65799;SDS011;52544;48.116;11.660;2024-01-30T13:10:42;7.60;;;2.90;;
65799;SDS011;52544;48.116;11.660;2024-01-30T13:13:07;7.35;;;2.88;;
65799;SDS011;52544;48.116;11.660;2024-01-30T13:15:34;8.05;;;2.95;;
65799;SDS011;52544;48.116;11.660;2024-01-30T13:17:59;4.95;;;2.83;;
65799;SDS011;52544;48.116;11.660;2024-01-30T13:20:25;12.93;;;3.22;;
65799;SDS011;52544;48.116;11.660;2024-01-30T13:22:50;11.20;;;3.38;;
65799;SDS011;52544;48.116;11.660;2024-01-30T13:25:16;5.32;;;2.67;;
65799;SDS011;52544;48.116;11.660;2024-01-30T13:27:41;11.13;;;2.75;;
65799;SDS011;52544;48.116;11.660;2024-01-30T13:30:07;8.90;;;3.03;;
65799;SDS011;52544;48.116;11.660;2024-01-30T13:32:34;8.70;;;3.10;;
65799;SDS011;52544;48.116;11.660;2024-01-30T13:35:00;8.48;;;2.35;;
65799;SDS011;52544;48.116;11.660;2024-01-30T13:37:25;12.10;;;2.78;;
65799;SDS011;52544;48.116;11.660;2024-01-30T13:39:51;7.22;;;2.55;;
65799;SDS011;52544;48.116;11.660;2024-01-30T13:42:16;11.30;;;2.80;;
65799;SDS011;52544;48.116;11.660;2024-01-30T13:44:42;11.25;;;3.42;;
65799;SDS011;52544;48.116;11.660;2024-01-30T13:47:09;13.38;;;3.20;;
65799;SDS011;52544;48.116;11.660;2024-01-30T13:49:34;8.23;;;2.95;;
65799;SDS011;52544;48.116;11.660;2024-01-30T13:52:00;13.02;;;3.38;;
65799;SDS011;52544;48.116;11.660;2024-01-30T13:54:25;13.13;;;3.22;;
65799;SDS011;52544;48.116;11.660;2024-01-30T13:56:51;27.65;;;11.38;;
65799;SDS011;52544;48.116;11.660;2024-01-30T13:59:16;11.20;;;3.88;;
65799;SDS011;52544;48.116;11.660;2024-01-30T14:01:47;11.13;;;3.65;;
65799;SDS011;52544;48.116;11.660;2024-01-30T14:04:13;8.85;;;3.33;;
65799;SDS011;52544;48.116;11.660;2024-01-30T14:06:39;11.25;;;3.20;;
65799;SDS011;52544;48.116;11.660;2024-01-30T14:09:05;13.57;;;3.22;;
65799;SDS011;52544;48.116;11.660;2024-01-30T14:11:30;15.60;;;3.90;;
65799;SDS011;52544;48.116;11.660;2024-01-30T14:13:56;31.30;;;4.25;;
65799;SDS011;52544;48.116;11.660;2024-01-30T14:16:21;8.60;;;3.30;;
65799;SDS011;52544;48.116;11.660;2024-01-30T14:18:47;12.07;;;3.58;;
65799;SDS011;52544;48.116;11.660;2024-01-30T14:21:13;11.30;;;3.30;;
65799;SDS011;52544;48.116;11.660;2024-01-30T14:23:38;10.70;;;3.33;;